Time;durP1;ratioP1;P1;durP2;ratioP2;P2;SDS_P1;SDS_P2;PMS_P1;PMS_P2;Temp;Humidity;BMP_temperature;BMP_pressure;BME280_temperature;BME280_humidity;BME280_pressure;Samples;Min_cycle;Max_cycle;Signal;HPM_P1;HPM_P2
2021/12/27 00:01:54;;;;;;;5.10;4.60;;;7.20;99.90;;;;;;4994363;28;20502;-62
2021/12/27 00:04:19;;;;;;;3.90;3.60;;;7.30;99.90;;;;;;4994857;28;20533;-63
2021/12/27 00:06:45;;;;;;;4.67;4.13;;;7.30;99.90;;;;;;4993160;28;20195;-62
2021/12/27 00:09:11;;;;;;;7.33;5.00;;;7.30;99.90;;;;;;4994588;28;20171;-63
2021/12/27 00:11:36;;;;;;;4.83;4.30;;;7.40;99.90;;;;;;4992857;28;20171;-63
2021/12/27 00:14:02;;;;;;;4.30;3.90;;;7.40;99.90;;;;;;4994609;28;20534;-62
2021/12/27 00:16:27;;;;;;;5.57;5.07;;;7.40;99.90;;;;;;4994507;28;20270;-62
2021/12/27 00:18:53;;;;;;;4.50;4.10;;;7.50;99.90;;;;;;4994693;28;20517;-64
2021/12/27 00:21:19;;;;;;;5.40;3.83;;;7.50;99.90;;;;;;4994176;28;20170;-65
2021/12/27 00:23:44;;;;;;;8.90;5.33;;;7.50;99.90;;;;;;4993071;28;20610;-63
2021/12/27 00:26:10;;;;;;;5.00;3.73;;;7.50;99.90;;;;;;4994268;28;20654;-63
2021/12/27 00:28:36;;;;;;;6.32;4.97;;;7.50;99.90;;;;;;4994421;28;20201;-63
2021/12/27 00:31:03;;;;;;;4.07;3.07;;;7.50;99.90;;;;;;4994100;28;20174;-63
2021/12/27 00:33:29;;;;;;;4.95;4.38;;;7.60;99.90;;;;;;4994181;28;20240;-63
2021/12/27 00:35:54;;;;;;;3.63;3.30;;;7.60;99.90;;;;;;4994182;28;20174;-63
2021/12/27 00:38:20;;;;;;;4.97;4.30;;;7.60;99.90;;;;;;4994164;28;20745;-62
2021/12/27 00:40:46;;;;;;;7.00;6.33;;;7.70;99.90;;;;;;4994163;28;20402;-62
2021/12/27 00:43:12;;;;;;;6.90;4.77;;;7.60;99.90;;;;;;4992543;28;20657;-63
2021/12/27 00:45:38;;;;;;;8.25;5.10;;;7.60;99.90;;;;;;4994206;28;20163;-62
2021/12/27 00:48:04;;;;;;;5.50;4.47;;;7.50;99.90;;;;;;4993928;28;20260;-62
2021/12/27 00:50:30;;;;;;;7.10;5.88;;;7.50;99.90;;;;;;4994195;28;20179;-63
2021/12/27 00:52:56;;;;;;;5.20;4.22;;;7.50;99.90;;;;;;4993606;28;20649;-62
2021/12/27 00:55:22;;;;;;;6.17;5.60;;;7.50;99.90;;;;;;4993906;28;20178;-66
2021/12/27 00:57:49;;;;;;;6.20;4.75;;;7.40;99.90;;;;;;4992578;28;20208;-63
2021/12/27 01:00:17;;;;;;;4.38;3.97;;;7.40;99.90;;;;;;4993867;28;20178;-63
2021/12/27 01:02:45;;;;;;;4.25;3.85;;;7.40;99.90;;;;;;4993304;28;20249;-63
2021/12/27 01:05:11;;;;;;;6.95;4.50;;;7.40;99.90;;;;;;4997654;28;20548;-63
2021/12/27 01:07:37;;;;;;;6.20;5.35;;;7.40;99.90;;;;;;4997800;28;20194;-63
2021/12/27 01:17:49;;;;;;;5.70;4.07;;;7.40;99.90;;;;;;4997785;28;20199;-62
2021/12/27 01:20:18;;;;;;;3.97;3.38;;;7.40;99.90;;;;;;4996579;28;20214;-63
2021/12/27 01:22:44;;;;;;;3.78;3.45;;;7.40;99.90;;;;;;4997335;28;20221;-62
2021/12/27 01:25:12;;;;;;;5.10;4.03;;;7.40;99.90;;;;;;4997657;28;20201;-63
2021/12/27 01:27:39;;;;;;;8.05;5.95;;;7.40;99.90;;;;;;4997495;28;20205;-62
2021/12/27 01:30:07;;;;;;;4.50;4.10;;;7.40;99.90;;;;;;4997501;28;20178;-63
2021/12/27 01:32:39;;;;;;;5.82;4.60;;;7.40;99.90;;;;;;4997241;28;20262;-63
2021/12/27 01:35:05;;;;;;;5.55;4.60;;;7.30;99.90;;;;;;4997656;28;20175;-63
2021/12/27 01:37:31;;;;;;;5.25;4.40;;;7.30;99.90;;;;;;4997351;28;20699;-63
2021/12/27 01:39:57;;;;;;;4.10;3.70;;;7.30;99.90;;;;;;4997674;28;20636;-63
2021/12/27 01:42:23;;;;;;;5.23;3.47;;;7.30;99.90;;;;;;4997044;28;20201;-63
2021/12/27 01:44:48;;;;;;;4.07;3.67;;;7.20;99.90;;;;;;4997431;28;20174;-63
2021/12/27 01:47:14;;;;;;;5.30;4.87;;;7.30;99.90;;;;;;4997120;28;20691;-63
2021/12/27 01:49:40;;;;;;;5.23;3.77;;;7.30;99.90;;;;;;4997208;28;20174;-62
2021/12/27 01:52:07;;;;;;;8.43;3.70;;;7.30;99.90;;;;;;4996518;28;20781;-62
2021/12/27 01:54:32;;;;;;;5.50;4.40;;;7.30;99.90;;;;;;4996960;28;20535;-63
2021/12/27 01:56:59;;;;;;;3.67;3.37;;;7.30;99.90;;;;;;4996983;28;20198;-63
2021/12/27 01:59:25;;;;;;;3.60;2.97;;;7.40;99.90;;;;;;4996756;28;20171;-63
2021/12/27 02:01:51;;;;;;;3.13;2.83;;;7.40;99.90;;;;;;4996400;28;20179;-63
2021/12/27 02:04:17;;;;;;;3.80;3.37;;;7.50;99.90;;;;;;4996969;28;20279;-63
2021/12/27 02:06:42;;;;;;;4.17;3.37;;;7.50;99.90;;;;;;4996744;28;20186;-63
2021/12/27 02:09:09;;;;;;;4.50;2.97;;;7.50;99.90;;;;;;4996753;28;20168;-62
2021/12/27 02:11:35;;;;;;;4.63;4.22;;;7.50;99.90;;;;;;4996508;28;20631;-63
2021/12/27 02:14:05;;;;;;;5.87;3.40;;;7.60;99.90;;;;;;4996330;28;20193;-64
2021/12/27 02:16:32;;;;;;;2.50;2.30;;;7.60;99.90;;;;;;4996579;28;20437;-62
2021/12/27 02:18:57;;;;;;;2.35;2.00;;;7.60;99.90;;;;;;4996687;28;20533;-62
2021/12/27 02:21:25;;;;;;;4.57;3.17;;;7.60;99.90;;;;;;4996539;28;20170;-64
2021/12/27 02:23:54;;;;;;;3.25;2.83;;;7.70;99.90;;;;;;4996631;28;20338;-62
2021/12/27 02:26:20;;;;;;;4.22;3.83;;;7.70;99.90;;;;;;4996324;28;20206;-64
2021/12/27 02:28:47;;;;;;;2.95;2.63;;;7.70;99.90;;;;;;4996379;28;20185;-63
2021/12/27 02:31:13;;;;;;;3.15;2.85;;;7.70;99.90;;;;;;4996299;28;20176;-63
2021/12/27 02:33:42;;;;;;;3.90;3.30;;;7.70;99.90;;;;;;4996555;28;20598;-62
2021/12/27 02:36:08;;;;;;;5.32;2.97;;;7.80;99.90;;;;;;4996115;28;20664;-62
2021/12/27 02:38:36;;;;;;;4.07;3.20;;;7.80;99.90;;;;;;4996489;28;20173;-63
2021/12/27 02:41:02;;;;;;;4.32;3.92;;;7.80;99.90;;;;;;4996097;28;20235;-63
2021/12/27 02:43:30;;;;;;;3.40;3.10;;;7.90;99.90;;;;;;4994754;28;20293;-64
2021/12/27 02:45:59;;;;;;;2.53;2.42;;;7.80;99.90;;;;;;4995947;28;20176;-63
2021/12/27 02:48:33;;;;;;;3.70;3.40;;;7.90;99.90;;;;;;4996304;28;20164;-63
2021/12/27 02:50:59;;;;;;;4.32;3.65;;;7.80;99.90;;;;;;4996197;28;20170;-64
2021/12/27 02:53:26;;;;;;;5.15;3.88;;;7.80;99.90;;;;;;4996101;28;20174;-63
2021/12/27 02:55:54;;;;;;;3.90;3.60;;;7.80;99.90;;;;;;4995840;28;20210;-62
2021/12/27 02:58:20;;;;;;;2.95;2.47;;;7.70;99.90;;;;;;4995761;28;20172;-63
2021/12/27 03:00:46;;;;;;;3.72;3.38;;;7.70;99.90;;;;;;4995795;28;20183;-63
2021/12/27 03:03:11;;;;;;;2.70;2.50;;;7.60;99.90;;;;;;4995489;28;20206;-63
2021/12/27 03:05:38;;;;;;;3.40;3.10;;;7.60;99.90;;;;;;4995937;28;20527;-64
2021/12/27 03:08:04;;;;;;;3.53;3.28;;;7.60;99.90;;;;;;4995649;28;20194;-63
2021/12/27 03:10:33;;;;;;;3.20;2.83;;;7.60;99.90;;;;;;4995557;28;20178;-62
2021/12/27 03:13:03;;;;;;;3.72;2.92;;;7.60;99.90;;;;;;4995172;28;20820;-62
2021/12/27 03:15:29;;;;;;;3.75;3.40;;;7.70;99.90;;;;;;4995918;28;20538;-64
2021/12/27 03:17:55;;;;;;;6.75;4.20;;;7.60;99.90;;;;;;4995547;28;20199;-63
2021/12/27 03:20:25;;;;;;;3.33;3.03;;;7.60;99.90;;;;;;4995660;28;20178;-63
2021/12/27 03:22:51;;;;;;;4.35;2.90;;;7.60;99.90;;;;;;4993736;28;20457;-63
2021/12/27 03:25:25;;;;;;;6.38;5.68;;;7.60;99.90;;;;;;4995305;28;20178;-63
2021/12/27 03:27:50;;;;;;;6.50;3.97;;;7.50;99.90;;;;;;4994722;28;20262;-63
2021/12/27 03:30:20;;;;;;;4.23;3.60;;;7.50;99.90;;;;;;4995538;28;20175;-63
2021/12/27 03:32:46;;;;;;;4.13;3.67;;;7.50;99.90;;;;;;4994784;28;20183;-64
2021/12/27 03:35:15;;;;;;;2.73;2.53;;;7.50;99.90;;;;;;4995304;28;20174;-63
2021/12/27 03:37:45;;;;;;;3.67;3.08;;;7.50;99.90;;;;;;4995062;28;20781;-63
2021/12/27 03:40:13;;;;;;;3.13;2.80;;;7.60;99.90;;;;;;4995493;28;20171;-63
2021/12/27 03:42:39;;;;;;;4.30;3.50;;;7.50;99.90;;;;;;4994613;28;20289;-64
2021/12/27 03:45:07;;;;;;;4.65;3.70;;;7.50;99.90;;;;;;4995161;28;20507;-63
2021/12/27 03:47:33;;;;;;;3.47;2.78;;;7.50;99.90;;;;;;4994671;28;20207;-63
2021/12/27 03:49:59;;;;;;;3.63;3.27;;;7.60;99.90;;;;;;4994995;28;20587;-63
2021/12/27 03:52:24;;;;;;;5.30;4.13;;;7.60;99.90;;;;;;4994338;28;20414;-63
2021/12/27 03:54:50;;;;;;;4.70;3.60;;;7.60;99.90;;;;;;4994895;28;20421;-62
2021/12/27 03:57:16;;;;;;;3.10;2.40;;;7.60;99.90;;;;;;4994550;28;20290;-63
2021/12/27 04:02:12;;;;;;;3.40;2.80;;;7.70;99.90;;;;;;4994122;28;20202;-64
2021/12/27 04:04:38;;;;;;;3.67;3.33;;;7.70;99.90;;;;;;4993314;28;20262;-62
2021/12/27 04:07:07;;;;;;;5.68;3.10;;;7.70;99.90;;;;;;4994913;28;20204;-63
2021/12/27 04:09:32;;;;;;;4.68;3.75;;;7.70;99.90;;;;;;4994640;28;20163;-63
2021/12/27 04:11:58;;;;;;;3.37;3.07;;;7.60;99.90;;;;;;4994228;28;20664;-63
2021/12/27 04:14:25;;;;;;;2.77;2.30;;;7.60;99.90;;;;;;4994840;28;20167;-63
2021/12/27 04:16:52;;;;;;;2.88;2.63;;;7.60;99.90;;;;;;4994448;28;20260;-64
2021/12/27 04:19:17;;;;;;;3.28;2.88;;;7.70;99.90;;;;;;4994467;28;20635;-63
2021/12/27 04:21:43;;;;;;;2.50;2.27;;;7.70;99.90;;;;;;4994004;28;20178;-64
2021/12/27 04:24:09;;;;;;;2.07;1.87;;;7.70;99.90;;;;;;4994878;28;20213;-62
2021/12/27 04:26:34;;;;;;;2.27;2.07;;;7.70;99.90;;;;;;4994258;28;20190;-63
2021/12/27 04:29:00;;;;;;;2.83;2.60;;;7.70;99.90;;;;;;4994347;28;20290;-62
2021/12/27 04:31:25;;;;;;;2.90;2.67;;;7.70;99.90;;;;;;4993886;28;20178;-62
2021/12/27 04:33:51;;;;;;;4.10;3.00;;;7.80;99.90;;;;;;4994151;28;20252;-62
2021/12/27 04:36:17;;;;;;;3.57;2.33;;;7.70;99.90;;;;;;4993941;28;20282;-63
2021/12/27 04:38:43;;;;;;;3.20;2.93;;;7.80;99.90;;;;;;4993666;28;20598;-63
2021/12/27 04:41:12;;;;;;;1.70;1.60;;;7.80;99.90;;;;;;4993853;28;20171;-65
2021/12/27 04:43:38;;;;;;;2.55;2.35;;;7.80;99.90;;;;;;4994064;28;20820;-62
2021/12/27 04:46:04;;;;;;;2.83;2.53;;;7.80;99.90;;;;;;4993880;28;20174;-63
2021/12/27 04:48:30;;;;;;;2.10;1.80;;;7.80;99.90;;;;;;4993935;28;20171;-63
2021/12/27 04:50:56;;;;;;;2.53;2.33;;;7.80;99.90;;;;;;4993980;28;20411;-63
2021/12/27 04:53:22;;;;;;;3.23;2.27;;;7.80;99.90;;;;;;4993619;28;20175;-63
2021/12/27 04:55:47;;;;;;;4.07;2.80;;;7.80;99.90;;;;;;4992843;28;20451;-63
2021/12/27 04:58:16;;;;;;;3.27;3.07;;;7.90;99.90;;;;;;4993861;28;20269;-62
2021/12/27 05:00:43;;;;;;;2.47;2.15;;;7.90;99.90;;;;;;4993979;28;20174;-62
2021/12/27 05:03:09;;;;;;;1.73;1.63;;;7.80;99.90;;;;;;4993376;28;20205;-64
2021/12/27 05:05:36;;;;;;;3.50;2.70;;;7.80;99.90;;;;;;4994123;28;20167;-63
2021/12/27 05:08:03;;;;;;;2.00;1.90;;;7.80;99.90;;;;;;4993789;28;20190;-63
2021/12/27 05:10:30;;;;;;;2.47;2.28;;;7.70;99.90;;;;;;4993892;28;20266;-66
2021/12/27 05:12:56;;;;;;;2.25;2.10;;;7.70;99.90;;;;;;4993420;28;20187;-64
2021/12/27 05:15:22;;;;;;;2.75;2.55;;;7.70;99.90;;;;;;4993901;28;20175;-64
2021/12/27 05:17:48;;;;;;;2.63;2.42;;;7.70;99.90;;;;;;4993765;28;20195;-63
2021/12/27 05:20:14;;;;;;;2.53;2.20;;;7.70;99.90;;;;;;4993762;28;20229;-64
2021/12/27 05:22:41;;;;;;;1.73;1.63;;;7.70;99.90;;;;;;4993278;28;20254;-63
2021/12/27 05:25:09;;;;;;;3.35;3.05;;;7.70;99.90;;;;;;4992542;28;20172;-63
2021/12/27 05:27:36;;;;;;;2.10;1.92;;;7.70;99.90;;;;;;4992413;28;20230;-64
2021/12/27 05:30:02;;;;;;;2.72;2.47;;;7.80;99.90;;;;;;4993607;28;20310;-64
2021/12/27 05:32:28;;;;;;;2.30;2.10;;;7.70;99.90;;;;;;4992074;28;20182;-63
2021/12/27 05:34:53;;;;;;;3.03;1.83;;;7.70;99.90;;;;;;4993826;28;20178;-63
2021/12/27 05:37:19;;;;;;;1.63;1.53;;;7.80;99.90;;;;;;4993703;28;20191;-63
2021/12/27 05:39:45;;;;;;;4.10;2.60;;;7.80;99.90;;;;;;4993614;28;20180;-64
2021/12/27 05:42:10;;;;;;;4.00;3.70;;;7.80;99.90;;;;;;4993174;28;20269;-62
2021/12/27 05:44:36;;;;;;;4.70;2.87;;;7.70;99.90;;;;;;4993501;28;20178;-63
2021/12/27 05:47:02;;;;;;;5.37;2.80;;;7.70;99.90;;;;;;4992030;28;20222;-63
2021/12/27 05:49:27;;;;;;;2.93;2.73;;;7.80;99.90;;;;;;4994460;28;20222;-63
2021/12/27 05:51:53;;;;;;;2.87;2.40;;;7.70;99.90;;;;;;4996968;28;20399;-63
2021/12/27 05:54:20;;;;;;;3.60;3.30;;;7.70;99.90;;;;;;4997274;28;20171;-62
2021/12/27 05:56:47;;;;;;;2.42;2.22;;;7.70;99.90;;;;;;4997001;28;20289;-63
2021/12/27 05:59:14;;;;;;;2.92;2.72;;;7.70;99.90;;;;;;4997031;28;20179;-63
2021/12/27 06:01:40;;;;;;;4.20;3.60;;;7.70;99.90;;;;;;4995357;28;20175;-62
2021/12/27 06:04:06;;;;;;;2.72;2.53;;;7.70;99.90;;;;;;4996904;28;20206;-62
2021/12/27 06:06:31;;;;;;;3.73;3.40;;;7.60;99.90;;;;;;4996907;28;20179;-64
2021/12/27 06:08:57;;;;;;;3.63;2.83;;;7.60;99.90;;;;;;4996694;28;20438;-64
2021/12/27 06:11:23;;;;;;;2.97;2.57;;;7.60;99.90;;;;;;4996443;28;20172;-64
2021/12/27 06:13:48;;;;;;;3.57;2.97;;;7.60;99.90;;;;;;4996963;28;20652;-64
2021/12/27 06:16:14;;;;;;;2.80;2.60;;;7.60;99.90;;;;;;4996656;28;20802;-63
2021/12/27 06:18:40;;;;;;;2.90;2.60;;;7.60;99.90;;;;;;4995413;28;20185;-63
2021/12/27 06:21:06;;;;;;;3.77;3.33;;;7.60;99.90;;;;;;4994985;28;20186;-64
2021/12/27 06:23:32;;;;;;;5.93;3.20;;;7.50;99.90;;;;;;4996755;28;20206;-63
2021/12/27 06:25:58;;;;;;;3.80;3.40;;;7.50;99.90;;;;;;4994953;28;20441;-64
2021/12/27 06:28:24;;;;;;;3.10;2.80;;;7.50;99.90;;;;;;4996615;28;20580;-63
2021/12/27 06:30:50;;;;;;;2.90;2.70;;;7.50;99.90;;;;;;4996391;28;20174;-63
2021/12/27 06:33:16;;;;;;;3.30;3.00;;;7.50;99.90;;;;;;4995931;28;20172;-63
2021/12/27 06:35:42;;;;;;;4.50;3.77;;;7.50;99.90;;;;;;4996137;28;20190;-63
2021/12/27 06:38:08;;;;;;;12.03;5.00;;;7.40;99.90;;;;;;4996376;28;20451;-63
2021/12/27 06:40:34;;;;;;;4.70;3.40;;;7.30;99.90;;;;;;4996292;28;20406;-63
2021/12/27 06:43:00;;;;;;;4.15;3.75;;;7.20;99.90;;;;;;4995705;28;20316;-62
2021/12/27 06:45:26;;;;;;;4.50;3.30;;;7.10;99.90;;;;;;4996045;28;20198;-62
2021/12/27 06:47:51;;;;;;;11.05;4.25;;;7.00;99.90;;;;;;4995956;28;20447;-62
2021/12/27 06:50:17;;;;;;;4.63;4.33;;;7.00;99.90;;;;;;4996128;28;20534;-63
2021/12/27 06:52:45;;;;;;;5.13;3.93;;;7.00;99.90;;;;;;4995598;28;20637;-63
2021/12/27 06:55:11;;;;;;;7.10;4.72;;;6.90;99.90;;;;;;4996052;28;20446;-64
2021/12/27 06:57:38;;;;;;;4.65;4.20;;;6.90;99.90;;;;;;4996019;28;20653;-63
2021/12/27 07:00:09;;;;;;;3.83;3.40;;;6.90;99.90;;;;;;4995731;28;20664;-63
2021/12/27 07:02:35;;;;;;;4.07;3.35;;;6.70;99.90;;;;;;4995616;28;20722;-63
2021/12/27 07:05:01;;;;;;;4.07;3.07;;;6.70;99.90;;;;;;4995887;28;20171;-63
2021/12/27 07:07:26;;;;;;;6.50;3.77;;;6.70;99.90;;;;;;4995675;28;20659;-63
2021/12/27 07:09:52;;;;;;;4.50;3.50;;;6.70;99.90;;;;;;4996032;28;20994;-63
2021/12/27 07:12:18;;;;;;;3.87;3.47;;;6.60;99.90;;;;;;4995519;28;20726;-63
2021/12/27 07:14:43;;;;;;;3.90;3.50;;;6.50;99.90;;;;;;4995997;28;20442;-62
2021/12/27 07:17:09;;;;;;;5.67;4.30;;;6.40;99.90;;;;;;4995633;28;20204;-62
2021/12/27 07:19:35;;;;;;;7.10;3.43;;;6.40;99.90;;;;;;4995570;28;20184;-62
2021/12/27 07:22:01;;;;;;;4.50;4.10;;;6.30;99.90;;;;;;4995079;28;20177;-63
2021/12/27 07:24:26;;;;;;;5.07;4.50;;;6.30;99.90;;;;;;4995512;28;20419;-63
2021/12/27 07:26:52;;;;;;;3.67;3.37;;;6.30;99.90;;;;;;4995396;28;20206;-63
2021/12/27 07:29:19;;;;;;;7.17;4.43;;;6.30;99.90;;;;;;4995470;28;20259;-63
2021/12/27 07:31:45;;;;;;;5.85;4.18;;;6.30;99.90;;;;;;4993673;28;20182;-63
2021/12/27 07:34:12;;;;;;;4.43;4.03;;;6.30;99.90;;;;;;4995437;28;20167;-63
2021/12/27 07:36:38;;;;;;;4.60;3.75;;;6.30;99.90;;;;;;4995107;28;20432;-63
2021/12/27 07:39:05;;;;;;;3.63;3.20;;;6.30;99.90;;;;;;4993922;28;20189;-63
2021/12/27 07:41:30;;;;;;;8.00;5.57;;;6.40;99.90;;;;;;4994621;28;20543;-63
2021/12/27 07:43:56;;;;;;;5.03;4.20;;;6.50;99.90;;;;;;4995090;28;20201;-63
2021/12/27 07:46:23;;;;;;;4.63;3.90;;;6.70;99.90;;;;;;4994884;28;20205;-63
2021/12/27 07:48:49;;;;;;;4.13;3.72;;;6.80;99.90;;;;;;4994995;28;20556;-63
2021/12/27 07:51:15;;;;;;;4.57;4.18;;;6.90;99.90;;;;;;4994732;28;20170;-63
2021/12/27 07:53:41;;;;;;;10.43;5.30;;;7.00;99.90;;;;;;4994859;28;20712;-62
2021/12/27 07:56:08;;;;;;;5.47;4.53;;;7.10;99.90;;;;;;4995045;28;20174;-63
2021/12/27 07:58:34;;;;;;;7.22;6.05;;;7.10;99.90;;;;;;4993373;28;20178;-62
2021/12/27 08:00:59;;;;;;;5.30;3.95;;;7.20;99.90;;;;;;4994513;28;20182;-67
2021/12/27 08:03:25;;;;;;;4.93;4.47;;;7.20;99.90;;;;;;4994159;28;20667;-63
2021/12/27 08:05:51;;;;;;;5.37;4.10;;;7.30;99.90;;;;;;4994853;28;20214;-63
2021/12/27 08:08:17;;;;;;;3.30;3.00;;;7.30;99.90;;;;;;4994573;28;20246;-63
2021/12/27 08:10:43;;;;;;;4.23;3.40;;;7.20;99.90;;;;;;4994644;28;20573;-63
2021/12/27 08:13:11;;;;;;;6.72;3.97;;;7.20;99.90;;;;;;4993883;28;20440;-63
2021/12/27 08:15:37;;;;;;;5.30;4.50;;;7.20;99.90;;;;;;4994525;28;20233;-64
2021/12/27 08:18:03;;;;;;;6.47;4.20;;;7.30;99.90;;;;;;4993285;28;20429;-63
2021/12/27 08:20:29;;;;;;;5.70;4.67;;;7.50;99.90;;;;;;4994553;28;20652;-63
2021/12/27 08:22:54;;;;;;;4.60;4.13;;;7.70;99.90;;;;;;4992728;28;20513;-62
2021/12/27 08:25:20;;;;;;;5.50;5.00;;;7.90;99.90;;;;;;4994713;28;20174;-62
2021/12/27 08:27:46;;;;;;;6.00;4.23;;;8.20;99.90;;;;;;4994260;28;20198;-62
2021/12/27 08:30:13;;;;;;;5.07;4.30;;;8.40;99.90;;;;;;4994417;28;20164;-63
2021/12/27 08:32:42;;;;;;;3.30;3.00;;;8.60;99.90;;;;;;4993801;28;20642;-62
2021/12/27 08:35:09;;;;;;;7.78;5.38;;;8.90;99.90;;;;;;4994184;28;20641;-62
2021/12/27 08:37:35;;;;;;;6.38;4.70;;;9.10;99.90;;;;;;4994025;28;20191;-62
2021/12/27 08:40:00;;;;;;;3.42;3.10;;;9.50;99.90;;;;;;4994300;28;20262;-64
2021/12/27 08:42:26;;;;;;;10.43;4.50;;;9.70;99.90;;;;;;4993652;28;20283;-63
2021/12/27 08:44:53;;;;;;;4.43;3.40;;;9.90;99.90;;;;;;4992813;28;20183;-63
2021/12/27 08:47:19;;;;;;;4.47;4.10;;;10.40;99.90;;;;;;4993863;28;20978;-63
2021/12/27 08:49:45;;;;;;;3.37;3.07;;;10.90;99.90;;;;;;4994039;28;20765;-63
2021/12/27 08:52:11;;;;;;;3.03;2.70;;;11.30;99.90;;;;;;4993568;28;20416;-63
2021/12/27 08:54:37;;;;;;;3.70;2.63;;;11.70;99.90;;;;;;4994074;28;20506;-63
2021/12/27 08:57:05;;;;;;;2.73;2.47;;;11.90;99.90;;;;;;4993895;28;20513;-63
2021/12/27 08:59:31;;;;;;;3.33;3.13;;;12.30;99.90;;;;;;4993892;28;20572;-64
2021/12/27 09:01:57;;;;;;;2.20;2.10;;;12.90;99.90;;;;;;4993602;28;20927;-64
2021/12/27 09:04:23;;;;;;;2.47;1.90;;;13.40;99.90;;;;;;4994078;28;20794;-64
2021/12/27 09:06:50;;;;;;;2.93;2.73;;;13.80;99.90;;;;;;4993794;28;20402;-64
2021/12/27 09:09:15;;;;;;;3.23;2.50;;;14.20;99.90;;;;;;4993897;28;20409;-63
2021/12/27 09:11:42;;;;;;;2.60;2.40;;;14.60;99.90;;;;;;4993651;28;20501;-64
2021/12/27 09:14:08;;;;;;;2.87;2.57;;;14.90;99.90;;;;;;4993777;28;20637;-64
2021/12/27 09:16:34;;;;;;;2.17;2.00;;;15.00;99.90;;;;;;4993928;28;20438;-64
2021/12/27 09:18:59;;;;;;;2.93;2.67;;;15.10;99.90;;;;;;4993902;28;20511;-63
2021/12/27 09:21:25;;;;;;;2.07;1.90;;;14.90;99.90;;;;;;4993479;28;20820;-64
2021/12/27 09:23:51;;;;;;;2.10;2.00;;;14.70;99.90;;;;;;4993840;28;20195;-64
2021/12/27 09:26:17;;;;;;;2.23;2.13;;;14.60;99.90;;;;;;4996286;28;20412;-64
2021/12/27 09:28:43;;;;;;;1.90;1.80;;;14.60;99.90;;;;;;4996520;28;20915;-64
2021/12/27 09:31:09;;;;;;;2.03;1.93;;;14.80;99.90;;;;;;4997512;28;20222;-65
2021/12/27 09:33:34;;;;;;;2.60;2.37;;;15.00;99.90;;;;;;4997704;28;20201;-64
2021/12/27 09:36:00;;;;;;;2.00;1.90;;;15.50;99.90;;;;;;4997552;28;20176;-65
2021/12/27 09:38:26;;;;;;;1.87;1.77;;;15.80;99.90;;;;;;5000565;28;20186;-64
2021/12/27 09:40:52;;;;;;;1.97;1.80;;;15.90;99.90;;;;;;5004062;28;20418;-64
2021/12/27 09:43:18;;;;;;;5.57;2.27;;;16.10;99.90;;;;;;5001890;28;20206;-64
2021/12/27 09:45:44;;;;;;;3.10;1.93;;;16.30;99.90;;;;;;5004320;28;20262;-64
2021/12/27 09:48:10;;;;;;;1.60;1.50;;;16.50;99.90;;;;;;5003865;28;20450;-64
2021/12/27 09:50:42;;;;;;;2.10;1.90;;;16.60;99.90;;;;;;5004961;28;20434;-63
2021/12/27 09:53:08;;;;;;;2.73;2.27;;;16.70;99.90;;;;;;5004563;28;20413;-64
2021/12/27 09:55:34;;;;;;;2.23;2.13;;;16.60;99.90;;;;;;4999180;28;21005;-64
2021/12/27 09:58:00;;;;;;;2.27;2.10;;;16.50;99.90;;;;;;4996385;28;20434;-64
2021/12/27 10:00:27;;;;;;;1.60;1.50;;;16.40;99.90;;;;;;4997392;28;20525;-65
2021/12/27 10:02:55;;;;;;;1.83;1.73;;;16.30;99.90;;;;;;4996757;28;20261;-64
2021/12/27 10:05:23;;;;;;;2.30;2.10;;;16.30;99.90;;;;;;4997315;28;20411;-65
2021/12/27 10:07:49;;;;;;;2.20;2.00;;;16.30;99.90;;;;;;4996255;28;20484;-65
2021/12/27 10:10:14;;;;;;;2.20;2.10;;;16.20;99.90;;;;;;4996940;28;20389;-64
2021/12/27 10:12:40;;;;;;;2.10;1.90;;;16.30;99.90;;;;;;4996545;28;20663;-66
2021/12/27 10:15:09;;;;;;;2.10;1.90;;;16.50;99.90;;;;;;4996691;28;20519;-66
2021/12/27 10:17:37;;;;;;;2.17;2.07;;;16.80;99.90;;;;;;4996922;28;20202;-65
2021/12/27 10:20:13;;;;;;;2.80;2.00;;;16.70;99.90;;;;;;4995428;28;20445;-64
2021/12/27 10:22:45;;;;;;;3.47;2.80;;;16.80;99.90;;;;;;4996261;28;20428;-65
2021/12/27 10:25:20;;;;;;;1.80;1.70;;;16.90;99.90;;;;;;4996904;28;20407;-64
2021/12/27 10:27:47;;;;;;;1.70;1.60;;;17.10;99.90;;;;;;4996586;28;20434;-65
2021/12/27 10:30:16;;;;;;;1.80;1.70;;;17.10;99.90;;;;;;4996488;28;20441;-65
2021/12/27 10:32:42;;;;;;;2.50;1.90;;;17.10;99.90;;;;;;4996059;28;20912;-65
2021/12/27 10:35:10;;;;;;;2.10;2.00;;;17.00;99.90;;;;;;4996117;28;20411;-65
2021/12/27 10:37:37;;;;;;;2.20;2.00;;;16.70;99.90;;;;;;4996264;28;20412;-64
2021/12/27 10:40:08;;;;;;;1.93;1.70;;;16.50;99.60;;;;;;4996386;28;20385;-64
2021/12/27 10:42:46;;;;;;;1.70;1.60;;;16.40;99.50;;;;;;4995921;28;20805;-64
2021/12/27 10:45:18;;;;;;;1.73;1.63;;;16.10;99.80;;;;;;4996264;28;20394;-64
2021/12/27 10:47:45;;;;;;;1.67;1.57;;;16.10;99.90;;;;;;4996122;28;20453;-64
2021/12/27 10:50:20;;;;;;;1.50;1.40;;;16.10;99.90;;;;;;4996219;28;20418;-64
2021/12/27 10:52:53;;;;;;;1.73;1.63;;;16.10;99.90;;;;;;4995647;28;20399;-65
2021/12/27 10:55:31;;;;;;;1.90;1.80;;;15.90;99.90;;;;;;4996319;28;20399;-64
2021/12/27 10:58:18;;;;;;;1.57;1.47;;;15.70;99.90;;;;;;4995967;28;20421;-64
2021/12/27 11:00:50;;;;;;;1.93;1.83;;;15.50;99.90;;;;;;4991643;28;20921;-64
2021/12/27 11:03:38;;;;;;;0.90;0.90;;;15.30;99.90;;;;;;4975971;28;20959;-65
2021/12/27 11:06:09;;;;;;;1.40;1.30;;;15.20;99.90;;;;;;4976522;28;20415;-64
2021/12/27 11:08:38;;;;;;;1.10;1.10;;;14.80;99.90;;;;;;4976667;28;20442;-64
2021/12/27 11:11:05;;;;;;;1.20;1.00;;;14.60;99.90;;;;;;4976298;28;20411;-65
2021/12/27 11:13:32;;;;;;;1.27;1.17;;;14.40;99.90;;;;;;4976407;28;20399;-64
2021/12/27 11:15:58;;;;;;;1.90;1.80;;;14.00;99.90;;;;;;4976146;28;20782;-64
2021/12/27 11:18:24;;;;;;;3.00;2.17;;;13.50;99.90;;;;;;4976194;28;20415;-64
2021/12/27 11:20:56;;;;;;;2.73;1.90;;;13.00;99.90;;;;;;4975957;28;20235;-64
2021/12/27 11:23:23;;;;;;;2.43;2.23;;;12.70;99.90;;;;;;4974565;28;20812;-64
2021/12/27 11:26:03;;;;;;;2.43;2.27;;;12.40;99.90;;;;;;4976017;28;20406;-64
2021/12/27 11:28:34;;;;;;;1.97;1.77;;;12.10;99.90;;;;;;4976159;28;20409;-64
2021/12/27 11:31:19;;;;;;;4.13;2.53;;;11.90;99.90;;;;;;4975771;28;20464;-67
2021/12/27 11:34:12;;;;;;;2.47;1.83;;;11.70;99.90;;;;;;4976161;28;20457;-64
2021/12/27 11:36:45;;;;;;;5.40;1.80;;;11.60;99.90;;;;;;4973560;28;20804;-64
2021/12/27 11:39:28;;;;;;;2.00;1.90;;;11.50;99.90;;;;;;4975970;28;20400;-64
2021/12/27 11:41:59;;;;;;;1.85;1.75;;;11.50;99.90;;;;;;4975484;28;20744;-64
2021/12/27 11:44:33;;;;;;;3.22;2.30;;;11.50;99.90;;;;;;4974731;28;20735;-64
2021/12/27 11:46:59;;;;;;;2.20;1.77;;;11.30;99.90;;;;;;4974750;28;20264;-64
2021/12/27 11:49:46;;;;;;;2.20;1.97;;;11.30;99.90;;;;;;4975621;28;20177;-63
2021/12/27 11:52:25;;;;;;;1.90;1.80;;;11.30;99.90;;;;;;4975107;28;20259;-63
2021/12/27 11:54:56;;;;;;;1.52;1.42;;;11.20;99.90;;;;;;4975612;28;20428;-63
2021/12/27 11:57:44;;;;;;;2.23;2.03;;;11.20;99.90;;;;;;4975295;28;20190;-64
2021/12/27 12:00:23;;;;;;;2.00;1.90;;;11.10;99.90;;;;;;4992603;28;20415;-63
2021/12/27 12:02:53;;;;;;;2.63;2.43;;;11.20;99.90;;;;;;4994429;28;20231;-64
2021/12/27 12:05:44;;;;;;;4.25;2.95;;;11.20;99.90;;;;;;4994868;28;20449;-64
2021/12/27 12:08:12;;;;;;;2.47;2.27;;;11.20;99.90;;;;;;4994800;28;20193;-64
2021/12/27 12:10:49;;;;;;;3.13;2.58;;;11.20;99.90;;;;;;4994630;28;20911;-64
2021/12/27 12:13:22;;;;;;;2.45;2.25;;;11.20;99.90;;;;;;4994332;28;20173;-64
2021/12/27 12:16:00;;;;;;;2.47;2.27;;;11.30;99.90;;;;;;4994442;28;20198;-63
2021/12/27 12:18:26;;;;;;;2.63;2.20;;;11.30;99.90;;;;;;4994699;28;20391;-64
2021/12/27 12:20:53;;;;;;;2.30;1.63;;;11.30;99.90;;;;;;4994301;28;20956;-64
2021/12/27 12:23:18;;;;;;;2.65;2.42;;;11.30;99.90;;;;;;4994055;28;20455;-63
2021/12/27 12:25:44;;;;;;;2.20;2.10;;;11.30;99.90;;;;;;4994471;28;20632;-64
2021/12/27 12:28:12;;;;;;;3.10;2.80;;;11.30;99.90;;;;;;4993924;28;20200;-64
2021/12/27 12:30:42;;;;;;;2.50;2.22;;;11.40;99.90;;;;;;4994284;28;20170;-65
2021/12/27 12:33:15;;;;;;;2.60;2.40;;;11.40;99.90;;;;;;4994082;28;20668;-63
2021/12/27 12:35:50;;;;;;;3.60;2.15;;;11.40;99.90;;;;;;4994517;28;20405;-64
2021/12/27 12:38:33;;;;;;;5.53;3.33;;;11.40;99.90;;;;;;4994063;28;20204;-63
2021/12/27 12:41:20;;;;;;;3.13;2.93;;;11.40;99.90;;;;;;4994074;28;20382;-67
2021/12/27 12:43:54;;;;;;;4.13;3.70;;;11.40;99.90;;;;;;4992568;28;20521;-64
2021/12/27 12:46:29;;;;;;;5.37;4.67;;;11.40;99.90;;;;;;4993938;28;20448;-64
2021/12/27 12:49:06;;;;;;;4.97;3.08;;;11.40;99.90;;;;;;4993916;28;20411;-64
2021/12/27 12:51:42;;;;;;;2.83;2.37;;;11.40;99.90;;;;;;4993819;28;20180;-64
2021/12/27 12:54:23;;;;;;;4.43;3.08;;;11.40;99.90;;;;;;4994111;28;20803;-64
2021/12/27 12:56:52;;;;;;;3.23;2.93;;;11.30;99.90;;;;;;4993925;28;20215;-63
2021/12/27 12:59:24;;;;;;;4.50;3.25;;;11.30;99.90;;;;;;4993572;28;20411;-63
2021/12/27 13:02:29;;;;;;;3.05;2.22;;;11.30;99.90;;;;;;4993515;28;20203;-64
2021/12/27 13:05:07;;;;;;;3.53;3.10;;;11.30;99.90;;;;;;4994160;28;20183;-64
2021/12/27 13:07:33;;;;;;;2.47;2.15;;;11.30;99.90;;;;;;4993759;28;20181;-63